Flight Track Log - Related Links

Times and Time Zones

All times are in EDT time to prevent confusion due to time zone crossing. See the FLG3733 flight status page for this flight to view local times or setup timezone preferences in your user account.

Time Position Orientation Groundspeed Altitude Reporting Facility
EDT Latitude Longitude Course Direction KTS MPH feet Rate Location/Type
Sat 02:39:19 PM 42.2017 -83.3583 90° East 149 171 1,300  Level Cleveland Center
Sat 02:40:44 PM 42.1286 -83.3550 178° South 206 237 3,800 1,685 Climbing Cleveland Center
Sat 02:41:45 PM 42.0706 -83.3414 170° South 253 291 5,400 1,964 Climbing Cleveland Center
Sat 02:42:34 PM 42.0642 -83.2628 96° East 303 349 7,400 2,328 Climbing Cleveland Center
Sat 02:43:00 PM 42.3335 -82.5826 71° East  Level FlightAware Approximate
Sat 02:43:41 PM 42.1003 -83.1467 67° East 305 351 9,900  Level Cleveland Center
Sat 02:44:00 PM 42.3667 -82.4351 90° East  Level FlightAware Approximate
Sat 02:44:48 PM 42.1422 -83.0336 63° Northeast 320 368 11,200  Level Cleveland Center
Sat 02:45:48 PM 42.1864 -82.9092 64° Northeast 341 392 12,500 1,450 Climbing Cleveland Center
Sat 02:46:48 PM 42.2369 -82.7847 61° Northeast 354 407 14,100 1,500 Climbing Cleveland Center
Sat 02:47:48 PM 42.2872 -82.6575 62° Northeast 369 425 15,500 1,350 Climbing Cleveland Center
Sat 02:48:48 PM 42.3375 -82.5242 63° Northeast 382 440 16,800 1,100 Climbing Cleveland Center
Sat 02:49:48 PM 42.3647 -82.3844 75° East 389 448 17,700 900 Climbing Cleveland Center
Sat 02:50:48 PM 42.3567 -82.2353 94° East 382 440 18,600 800 Climbing Cleveland Center
Sat 02:51:48 PM 42.3525 -82.0806 92° East 387 445 19,300 800 Climbing Cleveland Center
Sat 02:52:48 PM 42.3461 -81.9261 93° East 405 466 20,200 900 Climbing Cleveland Center
Sat 02:53:48 PM 42.3394 -81.7742 93° East 416 479 21,100 950 Climbing Cleveland Center
Sat 02:54:48 PM 42.3325 -81.6225 93° East 405 466 22,100 850 Climbing Cleveland Center
Sat 02:55:48 PM 42.3256 -81.4650 93° East 405 466 22,800 700 Climbing Cleveland Center
Sat 02:56:48 PM 42.3164 -81.2964 94° East 405 466 23,500 700 Climbing Cleveland Center
Sat 02:57:48 PM 42.3089 -81.1333 94° East 415 478 24,200 700 Climbing Cleveland Center
Sat 02:58:48 PM 42.3033 -80.9761 93° East 423 487 24,900 700 Climbing Cleveland Center
Sat 02:59:48 PM 42.2975 -80.8161 93° East 423 487 25,600 750 Climbing Cleveland Center
Sat 03:00:48 PM 42.3142 -80.6533 82° East 423 487 26,400 700 Climbing Cleveland Center
Sat 03:01:48 PM 42.3308 -80.4906 82° East 434 499 27,000 300 Climbing Cleveland Center
Sat 03:02:48 PM 42.3431 -80.3219 84° East 442 509 27,000  Level Cleveland Center
Sat 03:03:48 PM 42.3594 -80.1533 82° East 448 516 27,000  Level Cleveland Center
Sat 03:04:48 PM 42.3753 -79.9761 83° East 461 531 27,000  Level Cleveland Center
Sat 03:05:48 PM 42.3908 -79.7961 83° East 468 539 27,000  Level Cleveland Center
Sat 03:06:48 PM 42.4061 -79.6158 83° East 473 544 27,000  Level Cleveland Center
Sat 03:07:48 PM 42.4211 -79.4383 83° East 473 544 27,000  Level Cleveland Center
Sat 03:08:48 PM 42.4358 -79.2581 84° East 478 550 27,000  Level Cleveland Center
Sat 03:09:48 PM 42.4503 -79.0750 84° East 483 556 27,000  Level Cleveland Center
Sat 03:10:48 PM 42.4667 -78.8944 83° East 483 556 27,000  Level Cleveland Center
Sat 03:11:48 PM 42.4806 -78.7111 84° East 483 556 27,000  Level Cleveland Center
Sat 03:12:48 PM 42.4942 -78.5303 84° East 483 556 27,000  Level Cleveland Center
Sat 03:13:48 PM 42.5072 -78.3469 84° East 483 556 27,000  Level Cleveland Center
Sat 03:14:48 PM 42.5203 -78.1661 84° East 483 556 27,000  Level Cleveland Center
Sat 03:15:48 PM 42.5331 -77.9853 84° East 483 556 27,000  Level Cleveland Center
Sat 03:16:48 PM 42.5422 -77.8356 85° East 483 556 27,000  Level Cleveland Center
Sat 03:17:48 PM 42.5581 -77.6347 84° East 483 556 27,000  Level Cleveland Center
Sat 03:19:56 PM 42.5828 -77.2292 85° East 471 542 27,000  Level Boston Center
Sat 03:20:56 PM 42.5947 -77.0439 85° East 477 549 27,000  Level Boston Center
Sat 03:21:56 PM 42.6042 -76.8611 86° East 482 555 27,000  Level Boston Center
Sat 03:22:56 PM 42.6172 -76.6783 84° East 482 555 27,000  Level Boston Center
Sat 03:23:56 PM 42.6261 -76.4928 86° East 482 555 27,000 -700 Level Boston Center
Sat 03:24:56 PM 42.6369 -76.3042 85° East 487 560 25,600 -1,450 Descending Boston Center
Sat 03:25:56 PM 42.6453 -76.1128 87° East 499 574 24,100 -1,500 Descending Boston Center
Sat 03:26:56 PM 42.6386 -75.9261 93° East 499 574 22,600 -1,500 Descending Boston Center
Sat 03:27:56 PM 42.6339 -75.7422 92° East 499 574 21,100 -1,500 Descending Boston Center
Sat 03:28:56 PM 42.6281 -75.5783 93° East 499 574 19,600 -1,500 Descending Boston Center
Sat 03:29:56 PM 42.6264 -75.4058 91° East 481 554 18,100 -1,450 Descending Boston Center
Sat 03:30:56 PM 42.6264 -75.2394 90° East 453 521 16,700 -1,550 Descending Boston Center
Sat 03:31:56 PM 42.6261 -75.0814 90° East 432 497 15,000 -1,700 Descending Boston Center
Sat 03:32:56 PM 42.6253 -74.9289 90° East 413 475 13,300 -1,700 Descending Boston Center
Sat 03:33:56 PM 42.6225 -74.7681 91° East 395 455 11,600 -1,100 Descending Boston Center
Sat 03:34:56 PM 42.6192 -74.6239 92° East 381 438 11,100 -300 Descending Boston Center
Sat 03:35:56 PM 42.6131 -74.4967 94° East 381 438 11,000 -900 Descending Boston Center
Sat 03:36:56 PM 42.6050 -74.3583 94° East 345 397 9,300 -1,550 Descending Boston Center
Sat 03:37:56 PM 42.5964 -74.2536 96° East 313 360 7,900 -1,450 Descending Boston Center
Sat 03:38:56 PM 42.5858 -74.1378 97° East 289 333 6,400 -1,650 Descending Boston Center
Sat 03:39:56 PM 42.5933 -74.0419 84° East 271 312 4,600 -1,200 Descending Boston Center
Sat 03:40:56 PM 42.6050 -73.9492 80° East 266 306 4,000 -750 Descending Boston Center
Sat 03:41:56 PM 42.6186 -73.8678 77° East 241 277 3,100 -900 Descending Boston Center

Login

Don't have an account? Register now (free) for customized features, flight alerts, and more!